createdAt,value
2022-11-28T00:00:08.644Z,2.40
2022-11-28T00:02:35.515Z,2.40
2022-11-28T00:05:02.126Z,2.40
2022-11-28T00:07:28.822Z,2.40
2022-11-28T00:09:55.317Z,2.40
2022-11-28T00:12:21.830Z,2.40
2022-11-28T00:14:48.783Z,2.40
2022-11-28T00:17:15.356Z,1.80
2022-11-28T00:19:42.210Z,2.30
2022-11-28T00:22:08.807Z,2.30
2022-11-28T00:24:35.423Z,2.40
2022-11-28T00:27:02.261Z,2.30
2022-11-28T00:29:28.895Z,2.30
2022-11-28T00:31:55.135Z,2.30
2022-11-28T00:34:22.180Z,2.20
2022-11-28T00:36:48.904Z,2.10
2022-11-28T00:39:15.403Z,2.10
2022-11-28T00:41:41.985Z,2.00
2022-11-28T00:44:08.311Z,2.00
2022-11-28T00:46:34.509Z,1.90
2022-11-28T00:49:00.982Z,1.90
2022-11-28T00:51:29.310Z,1.90
2022-11-28T00:53:57.959Z,1.80
2022-11-28T00:56:26.854Z,1.80
2022-11-28T00:58:53.070Z,1.70
2022-11-28T01:01:27.196Z,1.70
2022-11-28T01:03:55.741Z,1.70
2022-11-28T01:06:24.200Z,1.60
2022-11-28T01:08:50.575Z,1.60
2022-11-28T01:11:17.289Z,1.50
2022-11-28T01:13:44.896Z,1.40
2022-11-28T01:16:11.735Z,1.50
2022-11-28T01:18:37.932Z,1.30
2022-11-28T01:21:05.620Z,1.20
2022-11-28T01:23:32.117Z,1.30
2022-11-28T01:25:58.949Z,1.20
2022-11-28T01:28:25.592Z,1.20
2022-11-28T01:30:51.752Z,1.10
2022-11-28T01:33:17.956Z,1.10
2022-11-28T01:35:53.867Z,0.90
2022-11-28T01:38:20.637Z,1.40
2022-11-28T01:40:46.741Z,0.80
2022-11-28T01:43:13.195Z,1.00
2022-11-28T01:45:39.633Z,0.90
2022-11-28T01:48:05.888Z,0.60
2022-11-28T01:50:32.101Z,0.60
2022-11-28T01:53:00.765Z,0.50
2022-11-28T01:55:30.401Z,0.40
2022-11-28T01:57:56.713Z,0.40
2022-11-28T02:00:23.123Z,0.30
2022-11-28T02:02:57.457Z,2.20
2022-11-28T02:05:23.617Z,0.50
2022-11-28T02:07:51.989Z,0.20
2022-11-28T02:10:26.767Z,0.20
2022-11-28T02:13:13.277Z,0.10
2022-11-28T02:15:58.094Z,0.10
2022-11-28T02:19:53.095Z,0.10
2022-11-28T02:22:45.632Z,0.00
2022-11-28T02:27:58.022Z,-0.10
2022-11-28T02:30:47.644Z,-0.10
2022-11-28T02:33:26.198Z,-0.10
2022-11-28T02:37:00.632Z,-0.10
2022-11-28T02:43:21.907Z,-0.20
2022-11-28T02:47:14.664Z,-0.40
2022-11-28T02:49:48.518Z,-0.50
2022-11-28T02:52:34.332Z,-0.50
2022-11-28T02:55:00.554Z,-0.50
2022-11-28T02:57:38.863Z,-0.50
2022-11-28T03:00:40.289Z,-0.50
2022-11-28T03:05:18.042Z,-0.50
2022-11-28T03:09:15.526Z,-2.80
2022-11-28T03:12:15.949Z,-0.60
2022-11-28T03:14:55.525Z,-0.60
2022-11-28T03:18:02.660Z,-0.60
2022-11-28T03:25:01.373Z,-0.60
2022-11-28T03:27:45.363Z,-0.60
2022-11-28T03:30:18.859Z,-0.50
2022-11-28T03:32:47.177Z,-0.40
2022-11-28T03:35:18.535Z,-0.30
2022-11-28T03:37:55.137Z,-0.20
2022-11-28T03:40:30.522Z,-0.20
2022-11-28T03:43:05.580Z,-0.10
2022-11-28T03:45:37.433Z,0.00
2022-11-28T03:48:09.618Z,0.00
2022-11-28T03:51:06.158Z,0.10
2022-11-28T03:53:44.512Z,0.10
2022-11-28T04:03:07.795Z,0.20
2022-11-28T04:06:03.356Z,0.20
2022-11-28T04:08:32.614Z,0.40
2022-11-28T04:12:01.284Z,0.30
2022-11-28T04:16:20.807Z,0.40
2022-11-28T04:19:13.397Z,0.40
2022-11-28T04:22:23.352Z,0.40
2022-11-28T04:24:57.577Z,2.30
2022-11-28T04:27:26.854Z,0.40
2022-11-28T04:29:54.429Z,0.40
2022-11-28T04:32:22.480Z,0.60
2022-11-28T04:34:52.414Z,0.40
2022-11-28T04:37:18.509Z,0.40
2022-11-28T04:39:46.943Z,0.60
2022-11-28T04:42:34.815Z,0.50
2022-11-28T04:48:34.424Z,0.50
2022-11-28T04:51:23.929Z,0.40
2022-11-28T04:53:55.988Z,0.80
2022-11-28T04:56:26.476Z,0.50
2022-11-28T04:58:53.254Z,0.50
2022-11-28T05:01:26.599Z,0.50
2022-11-28T05:03:52.851Z,0.50
2022-11-28T05:06:31.811Z,0.50
2022-11-28T05:08:57.980Z,0.50
2022-11-28T05:11:25.395Z,0.50
2022-11-28T05:13:52.498Z,0.50
2022-11-28T05:16:18.701Z,0.50
2022-11-28T05:18:44.949Z,0.50
2022-11-28T05:21:11.740Z,0.60
2022-11-28T05:23:38.901Z,0.50
2022-11-28T05:26:15.603Z,0.70
2022-11-28T05:28:49.570Z,0.60
2022-11-28T05:31:16.776Z,0.60
2022-11-28T05:33:43.306Z,0.60
2022-11-28T05:36:13.150Z,0.50
2022-11-28T05:38:40.261Z,0.60
2022-11-28T05:41:06.675Z,0.60
2022-11-28T05:43:32.853Z,0.60
2022-11-28T05:45:59.470Z,0.60
2022-11-28T05:48:26.355Z,0.60
2022-11-28T05:50:52.979Z,0.60
2022-11-28T05:53:19.854Z,0.60
2022-11-28T05:55:46.199Z,0.70
2022-11-28T05:58:12.344Z,0.60
2022-11-28T06:00:38.615Z,0.60
2022-11-28T06:03:05.457Z,0.60
2022-11-28T06:05:42.846Z,0.60
2022-11-28T06:08:13.013Z,0.60
2022-11-28T06:10:39.320Z,0.60
2022-11-28T06:13:05.457Z,0.60
2022-11-28T06:15:36.135Z,0.60
2022-11-28T06:18:03.975Z,0.60
2022-11-28T06:20:30.633Z,0.60
2022-11-28T06:22:57.482Z,0.60
2022-11-28T06:25:24.231Z,0.60
2022-11-28T06:27:51.366Z,0.70
2022-11-28T06:30:17.617Z,0.70
2022-11-28T06:32:43.773Z,0.70
2022-11-28T06:35:10.284Z,0.70
2022-11-28T06:37:36.421Z,0.70
2022-11-28T06:40:03.591Z,0.80
2022-11-28T06:42:29.728Z,0.80
2022-11-28T06:44:56.001Z,0.80
2022-11-28T06:47:22.158Z,0.80
2022-11-28T06:49:48.777Z,0.80
2022-11-28T06:52:14.984Z,0.80
2022-11-28T06:54:41.957Z,0.90
2022-11-28T06:57:08.949Z,0.90
2022-11-28T06:59:35.395Z,0.90
2022-11-28T07:02:07.280Z,0.90
2022-11-28T07:04:34.732Z,0.90
2022-11-28T07:07:01.381Z,1.00
2022-11-28T07:09:27.605Z,1.00
2022-11-28T07:11:54.811Z,1.10
2022-11-28T07:14:21.328Z,1.00
2022-11-28T07:16:48.681Z,1.10
2022-11-28T07:19:15.257Z,1.10
2022-11-28T07:21:41.733Z,1.10
2022-11-28T07:24:07.908Z,1.20
2022-11-28T07:26:37.325Z,1.20
2022-11-28T07:29:06.072Z,1.20
2022-11-28T07:31:32.974Z,1.20
2022-11-28T07:34:00.487Z,1.30
2022-11-28T07:36:27.260Z,1.20
2022-11-28T07:38:55.753Z,1.20
2022-11-28T07:41:26.495Z,1.20
2022-11-28T07:43:58.043Z,1.20
2022-11-28T07:46:24.721Z,1.20
2022-11-28T07:48:51.052Z,1.20
2022-11-28T07:51:25.139Z,1.20
2022-11-28T07:53:51.697Z,1.20
2022-11-28T07:56:24.236Z,1.20
2022-11-28T07:58:50.651Z,1.30
2022-11-28T08:01:21.872Z,1.20
2022-11-28T08:03:48.216Z,1.30
2022-11-28T08:06:15.968Z,1.20
2022-11-28T08:08:42.612Z,1.30
2022-11-28T08:11:09.252Z,2.90
2022-11-28T08:13:36.215Z,1.40
2022-11-28T08:16:10.926Z,1.50
2022-11-28T08:18:37.174Z,1.60
2022-11-28T08:21:10.565Z,1.60
2022-11-28T08:23:36.872Z,1.70
2022-11-28T08:26:04.023Z,1.70
2022-11-28T08:28:31.076Z,1.80
2022-11-28T08:30:58.954Z,1.80
2022-11-28T08:33:25.706Z,1.80
2022-11-28T08:35:53.039Z,1.90
2022-11-28T08:38:19.551Z,1.90
2022-11-28T08:40:45.798Z,1.90
2022-11-28T08:43:12.720Z,2.00
2022-11-28T08:45:39.813Z,2.00
2022-11-28T08:48:06.063Z,2.10
2022-11-28T08:50:32.259Z,2.20
2022-11-28T08:53:01.701Z,2.20
2022-11-28T08:55:36.607Z,2.40
2022-11-28T08:58:05.495Z,2.60
2022-11-28T09:00:32.454Z,2.80
2022-11-28T09:02:59.830Z,3.20
2022-11-28T09:05:27.085Z,3.50
2022-11-28T09:07:54.465Z,3.50
2022-11-28T09:10:21.035Z,3.50
2022-11-28T09:12:47.643Z,3.50
2022-11-28T09:15:13.844Z,3.30
2022-11-28T09:17:40.717Z,3.40
2022-11-28T09:20:07.973Z,3.30
2022-11-28T09:22:34.288Z,3.30
2022-11-28T09:25:01.872Z,3.30
2022-11-28T09:27:28.228Z,3.30
2022-11-28T09:29:55.090Z,3.40
2022-11-28T09:32:23.204Z,3.50
2022-11-28T09:34:52.500Z,3.60
2022-11-28T09:37:18.808Z,3.60
2022-11-28T09:40:11.523Z,3.50
2022-11-28T09:42:43.019Z,3.60
2022-11-28T09:45:22.439Z,3.80
2022-11-28T09:47:54.024Z,3.90
2022-11-28T09:50:24.947Z,4.00
2022-11-28T09:53:39.112Z,4.20
2022-11-28T09:56:12.134Z,4.60
2022-11-28T09:58:50.360Z,5.10
2022-11-28T10:01:48.247Z,5.70
2022-11-28T10:05:56.284Z,6.10
2022-11-28T10:09:19.062Z,6.40
2022-11-28T10:11:58.906Z,6.80
2022-11-28T10:15:56.300Z,6.50
2022-11-28T10:19:05.547Z,6.50
2022-11-28T10:21:53.936Z,6.50
2022-11-28T10:24:45.654Z,6.30
2022-11-28T10:27:12.957Z,6.30
2022-11-28T10:30:00.557Z,6.50
2022-11-28T10:32:41.604Z,6.80
2022-11-28T10:35:28.564Z,6.70
2022-11-28T10:37:57.364Z,6.70
2022-11-28T10:40:55.626Z,6.60
2022-11-28T10:43:59.157Z,6.40
2022-11-28T10:50:47.233Z,6.60
2022-11-28T10:54:47.313Z,6.70
2022-11-28T10:57:39.611Z,6.60
2022-11-28T11:00:17.896Z,6.60
2022-11-28T11:02:54.750Z,7.80
2022-11-28T11:05:34.247Z,6.60
2022-11-28T11:08:28.677Z,6.70
2022-11-28T11:17:50.125Z,6.70
2022-11-28T11:21:06.744Z,6.40
2022-11-28T11:23:38.062Z,5.60
2022-11-28T11:26:06.057Z,5.50
2022-11-28T11:28:53.914Z,5.50
2022-11-28T11:31:33.702Z,5.40
2022-11-28T11:34:11.819Z,5.40
2022-11-28T11:36:38.204Z,5.40
2022-11-28T11:39:24.796Z,5.40
2022-11-28T11:42:23.475Z,5.30
2022-11-28T11:44:50.964Z,5.30
2022-11-28T11:47:17.678Z,5.20
2022-11-28T11:49:47.552Z,5.20
2022-11-28T11:52:26.544Z,5.20
2022-11-28T11:55:15.114Z,5.20
2022-11-28T11:57:47.271Z,5.10
2022-11-28T12:01:01.019Z,5.10
2022-11-28T12:03:57.018Z,5.10
2022-11-28T12:06:29.409Z,5.00
2022-11-28T12:09:57.128Z,5.10
2022-11-28T12:12:28.701Z,5.00
2022-11-28T12:14:55.346Z,4.90
2022-11-28T12:18:29.898Z,4.90
2022-11-28T12:24:12.827Z,5.00
2022-11-28T12:27:03.344Z,5.50
2022-11-28T12:29:43.138Z,5.60
2022-11-28T12:32:40.477Z,5.80
2022-11-28T12:35:23.764Z,5.90
2022-11-28T12:40:47.241Z,5.90
2022-11-28T12:44:52.950Z,5.80
2022-11-28T12:48:42.687Z,5.60
2022-11-28T12:52:48.984Z,5.50
2022-11-28T12:58:52.075Z,5.40
2022-11-28T13:01:54.917Z,5.40
2022-11-28T13:08:06.364Z,5.40
2022-11-28T13:10:50.901Z,5.30
2022-11-28T13:13:23.707Z,5.20
2022-11-28T13:19:06.474Z,6.70
2022-11-28T13:22:24.530Z,5.00
2022-11-28T13:25:21.654Z,4.90
2022-11-28T13:27:57.581Z,4.80
2022-11-28T13:30:27.036Z,4.70
2022-11-28T13:33:11.145Z,4.60
2022-11-28T13:35:37.883Z,4.50
2022-11-28T13:38:35.632Z,4.40
2022-11-28T13:42:36.169Z,4.30
2022-11-28T13:45:33.644Z,4.20
2022-11-28T13:49:13.906Z,4.20
2022-11-28T13:51:41.155Z,4.10
2022-11-28T13:55:22.903Z,4.10
2022-11-28T13:57:49.107Z,4.10
2022-11-28T14:00:22.919Z,4.00
2022-11-28T14:02:57.818Z,3.80
2022-11-28T14:05:30.565Z,3.80
2022-11-28T14:07:57.486Z,3.70
2022-11-28T14:10:56.657Z,3.60
2022-11-28T14:13:38.467Z,3.60
2022-11-28T14:23:12.850Z,3.60
2022-11-28T14:25:48.206Z,3.40
2022-11-28T14:28:26.968Z,2.90
2022-11-28T14:31:20.473Z,2.70
2022-11-28T14:33:47.258Z,2.60
2022-11-28T14:39:46.484Z,2.50
2022-11-28T14:42:59.792Z,2.30
2022-11-28T14:49:32.529Z,2.40
2022-11-28T14:52:38.817Z,2.30
2022-11-28T14:55:41.604Z,2.20
2022-11-28T14:58:12.115Z,2.20
2022-11-28T15:00:54.195Z,2.10
2022-11-28T15:04:51.670Z,2.10
2022-11-28T15:07:32.984Z,2.10
2022-11-28T15:10:16.050Z,2.10
2022-11-28T15:14:22.571Z,2.10
2022-11-28T15:16:50.786Z,2.20
2022-11-28T15:19:43.702Z,2.20
2022-11-28T15:22:33.590Z,2.30
2022-11-28T15:25:00.907Z,2.50
2022-11-28T15:27:28.532Z,2.60
2022-11-28T15:30:00.446Z,2.70
2022-11-28T15:32:29.010Z,2.70
2022-11-28T15:35:00.496Z,2.80
2022-11-28T15:37:29.251Z,3.10
2022-11-28T15:39:57.959Z,2.90
2022-11-28T15:42:32.448Z,2.90
2022-11-28T15:45:14.225Z,3.00
2022-11-28T15:47:41.414Z,3.00
2022-11-28T15:50:28.280Z,3.00
2022-11-28T15:52:59.147Z,3.10
2022-11-28T15:55:29.973Z,2.10
2022-11-28T16:01:29.221Z,3.10
2022-11-28T16:04:04.658Z,3.10
2022-11-28T16:06:37.029Z,3.10
2022-11-28T16:09:08.881Z,3.10
2022-11-28T16:11:36.168Z,3.00
2022-11-28T16:14:14.450Z,3.00
2022-11-28T16:16:41.654Z,2.90
2022-11-28T16:19:22.065Z,2.90
2022-11-28T16:22:09.686Z,2.90
2022-11-28T16:24:59.753Z,2.80
2022-11-28T16:27:36.947Z,2.80
2022-11-28T16:30:54.393Z,2.70
2022-11-28T16:35:24.221Z,2.70
2022-11-28T16:38:16.491Z,2.80
2022-11-28T16:40:43.870Z,2.80
2022-11-28T16:44:13.289Z,2.80
2022-11-28T16:46:59.206Z,2.80
2022-11-28T16:49:40.632Z,2.70
2022-11-28T16:55:40.493Z,2.80
2022-11-28T16:58:17.892Z,2.80
2022-11-28T17:00:50.096Z,2.80
2022-11-28T17:03:47.118Z,2.90
2022-11-28T17:06:37.087Z,2.90
2022-11-28T17:09:06.995Z,2.90
2022-11-28T17:11:36.724Z,2.90
2022-11-28T17:14:11.726Z,2.90
2022-11-28T17:16:41.089Z,2.90
2022-11-28T17:19:07.528Z,2.90
2022-11-28T17:21:45.272Z,2.90
2022-11-28T17:24:33.790Z,2.90
2022-11-28T17:27:01.948Z,2.90
2022-11-28T17:29:30.115Z,2.90
2022-11-28T17:31:59.154Z,2.90
2022-11-28T17:34:30.927Z,2.90
2022-11-28T17:37:00.067Z,2.90
2022-11-28T17:39:27.453Z,2.80
2022-11-28T17:41:57.282Z,2.80
2022-11-28T17:44:32.428Z,2.80
2022-11-28T17:47:02.802Z,2.80
2022-11-28T17:49:31.207Z,2.70
2022-11-28T17:51:59.059Z,2.70
2022-11-28T17:54:26.086Z,2.70
2022-11-28T17:56:53.944Z,2.70
2022-11-28T17:59:23.291Z,2.70
2022-11-28T18:01:50.011Z,2.70
2022-11-28T18:04:16.580Z,2.70
2022-11-28T18:06:44.966Z,2.70
2022-11-28T18:09:14.816Z,2.60
2022-11-28T18:11:43.477Z,2.60
2022-11-28T18:14:11.253Z,2.50
2022-11-28T18:16:43.109Z,2.50
2022-11-28T18:19:09.601Z,2.40
2022-11-28T18:21:36.657Z,2.40
2022-11-28T18:24:04.244Z,2.40
2022-11-28T18:26:31.589Z,2.40
2022-11-28T18:28:59.429Z,2.40
2022-11-28T18:31:27.167Z,2.40
2022-11-28T18:34:00.250Z,2.40
2022-11-28T18:36:29.365Z,2.40
2022-11-28T18:38:56.552Z,2.50
2022-11-28T18:41:24.294Z,2.50
2022-11-28T18:44:04.728Z,2.50
2022-11-28T18:46:32.236Z,2.60
2022-11-28T18:48:59.065Z,2.50
2022-11-28T18:51:32.561Z,2.60
2022-11-28T18:54:01.436Z,2.60
2022-11-28T18:56:29.548Z,2.60
2022-11-28T18:58:56.603Z,2.70
2022-11-28T19:01:29.826Z,2.70
2022-11-28T19:04:01.431Z,2.70
2022-11-28T19:06:28.653Z,2.60
2022-11-28T19:09:06.333Z,2.60
2022-11-28T19:11:34.488Z,2.60
2022-11-28T19:14:02.528Z,2.60
2022-11-28T19:16:31.439Z,2.60
2022-11-28T19:18:59.345Z,2.40
2022-11-28T19:21:29.903Z,2.40
2022-11-28T19:24:00.691Z,2.40
2022-11-28T19:26:28.914Z,2.30
2022-11-28T19:28:55.862Z,2.30
2022-11-28T19:31:27.541Z,2.30
2022-11-28T19:34:28.956Z,2.20
2022-11-28T19:36:56.584Z,2.20
2022-11-28T19:39:25.588Z,2.20
2022-11-28T19:41:53.588Z,2.20
2022-11-28T19:44:23.462Z,2.20
2022-11-28T19:46:50.452Z,2.10
2022-11-28T19:49:19.508Z,2.10
2022-11-28T19:51:49.593Z,2.10
2022-11-28T19:54:20.171Z,2.10
2022-11-28T19:56:47.528Z,2.00
2022-11-28T19:59:15.376Z,2.00
2022-11-28T20:01:47.402Z,2.70
2022-11-28T20:04:13.874Z,2.00
2022-11-28T20:06:40.526Z,1.90
2022-11-28T20:09:09.749Z,1.90
2022-11-28T20:11:38.897Z,2.00
2022-11-28T20:14:07.364Z,2.00
2022-11-28T20:16:35.428Z,1.90
2022-11-28T20:19:02.675Z,2.00
2022-11-28T20:21:29.472Z,2.00
2022-11-28T20:23:59.033Z,2.00
2022-11-28T20:26:26.274Z,2.00
2022-11-28T20:28:55.329Z,2.00
2022-11-28T20:31:32.975Z,2.00
2022-11-28T20:34:01.078Z,2.00
2022-11-28T20:36:28.873Z,2.00
2022-11-28T20:38:55.780Z,2.00
2022-11-28T20:41:24.379Z,2.00
2022-11-28T20:43:54.243Z,2.00
2022-11-28T20:46:31.144Z,2.00
2022-11-28T20:49:01.997Z,2.00
2022-11-28T20:51:32.932Z,1.90
2022-11-28T20:54:03.825Z,1.90
2022-11-28T20:56:38.461Z,1.90
2022-11-28T20:59:23.698Z,1.90
2022-11-28T21:01:51.027Z,1.90
2022-11-28T21:04:18.957Z,1.90
2022-11-28T21:06:49.433Z,1.90
2022-11-28T21:09:19.270Z,1.90
2022-11-28T21:11:58.719Z,1.90
2022-11-28T21:14:27.291Z,1.90
2022-11-28T21:16:54.379Z,1.90
2022-11-28T21:19:21.856Z,1.90
2022-11-28T21:21:48.077Z,1.90
2022-11-28T21:24:14.893Z,1.90
2022-11-28T21:26:45.299Z,1.80
2022-11-28T21:29:17.768Z,1.80
2022-11-28T21:31:45.967Z,1.90
2022-11-28T21:34:14.487Z,1.90
2022-11-28T21:36:42.233Z,1.80
2022-11-28T21:39:14.081Z,1.90
2022-11-28T21:41:40.404Z,1.90
2022-11-28T21:44:07.345Z,1.90
2022-11-28T21:46:35.466Z,1.80
2022-11-28T21:49:03.407Z,1.90
2022-11-28T21:51:30.592Z,1.80
2022-11-28T21:53:57.171Z,1.80
2022-11-28T21:56:28.302Z,1.80
2022-11-28T21:58:55.259Z,1.80
2022-11-28T22:01:21.969Z,1.80
2022-11-28T22:03:50.251Z,1.80
2022-11-28T22:06:21.303Z,1.80
2022-11-28T22:08:51.736Z,1.70
2022-11-28T22:11:19.150Z,1.70
2022-11-28T22:13:46.425Z,1.80
2022-11-28T22:16:15.731Z,1.70
2022-11-28T22:18:42.695Z,1.70
2022-11-28T22:21:49.845Z,1.70
2022-11-28T22:24:18.255Z,1.70
2022-11-28T22:26:45.700Z,1.70
2022-11-28T22:29:12.933Z,1.70
2022-11-28T22:31:40.438Z,1.70
2022-11-28T22:34:08.902Z,1.70
2022-11-28T22:36:35.098Z,1.70
2022-11-28T22:39:02.071Z,1.70
2022-11-28T22:41:29.730Z,1.70
2022-11-28T22:43:59.037Z,1.70
2022-11-28T22:46:25.702Z,1.70
2022-11-28T22:48:53.684Z,1.70
2022-11-28T22:51:22.972Z,1.60
2022-11-28T22:53:57.032Z,1.70
2022-11-28T22:56:24.328Z,1.70
2022-11-28T22:58:52.054Z,1.70
2022-11-28T23:01:21.142Z,1.70
2022-11-28T23:03:47.711Z,1.70
2022-11-28T23:06:23.863Z,1.70
2022-11-28T23:08:50.220Z,1.60
2022-11-28T23:11:18.890Z,1.70
2022-11-28T23:13:47.641Z,1.70
2022-11-28T23:16:16.121Z,1.70
2022-11-28T23:18:43.693Z,3.20
2022-11-28T23:21:13.326Z,1.60
2022-11-28T23:23:39.950Z,1.60
2022-11-28T23:26:10.774Z,1.60
2022-11-28T23:28:37.717Z,1.60
2022-11-28T23:31:12.309Z,1.60
2022-11-28T23:33:38.793Z,1.50
2022-11-28T23:37:27.232Z,1.50
2022-11-28T23:39:54.623Z,1.60
2022-11-28T23:42:21.178Z,1.50
2022-11-28T23:44:48.772Z,1.50
2022-11-28T23:47:15.256Z,1.50
2022-11-28T23:49:41.712Z,1.50
2022-11-28T23:52:08.489Z,1.50
2022-11-28T23:54:34.640Z,1.40
2022-11-28T23:57:00.854Z,1.40
2022-11-28T23:59:27.475Z,1.30
